createdAt,value
2018-11-07T00:02:22.574Z,22.90
2018-11-07T00:04:50.725Z,23.60
2018-11-07T00:07:18.849Z,23.47
2018-11-07T00:09:47.025Z,24.40
2018-11-07T00:12:15.181Z,22.40
2018-11-07T00:14:43.369Z,23.40
2018-11-07T00:17:11.512Z,22.47
2018-11-07T00:19:39.701Z,22.30
2018-11-07T00:22:07.937Z,23.10
2018-11-07T00:24:36.141Z,24.03
2018-11-07T00:27:04.305Z,23.37
2018-11-07T00:29:32.517Z,24.80
2018-11-07T00:32:00.949Z,24.03
2018-11-07T00:34:29.385Z,23.00
2018-11-07T00:36:57.546Z,22.57
2018-11-07T00:39:25.783Z,21.60
2018-11-07T00:41:53.956Z,23.40
2018-11-07T00:44:22.222Z,21.30
2018-11-07T00:46:50.357Z,21.73
2018-11-07T00:49:18.761Z,22.40
2018-11-07T00:51:46.989Z,22.33
2018-11-07T00:54:15.137Z,22.27
2018-11-07T00:56:43.314Z,22.70
2018-11-07T00:59:11.486Z,24.13
2018-11-07T01:01:39.710Z,24.40
2018-11-07T01:04:07.869Z,23.37
2018-11-07T01:06:36.226Z,24.43
2018-11-07T01:09:05.989Z,24.30
2018-11-07T01:11:34.174Z,23.40
2018-11-07T01:14:02.374Z,23.13
2018-11-07T01:16:30.598Z,21.63
2018-11-07T01:18:58.717Z,24.83
2018-11-07T01:21:26.889Z,24.80
2018-11-07T01:23:55.033Z,21.50
2018-11-07T01:26:23.195Z,21.20
2018-11-07T01:28:51.370Z,21.70
2018-11-07T01:31:20.085Z,21.10
2018-11-07T01:33:48.289Z,22.13
2018-11-07T01:36:16.634Z,22.70
2018-11-07T01:38:44.809Z,21.27
2018-11-07T01:41:13.009Z,21.77
2018-11-07T01:43:41.237Z,22.77
2018-11-07T01:46:09.409Z,19.63
2018-11-07T01:48:37.633Z,23.13
2018-11-07T01:51:06.021Z,22.20
2018-11-07T01:53:34.167Z,24.47
2018-11-07T01:56:02.306Z,25.13
2018-11-07T01:58:30.473Z,23.13
2018-11-07T02:00:58.629Z,23.30
2018-11-07T02:03:26.814Z,22.90
2018-11-07T02:05:54.965Z,23.83
2018-11-07T02:08:27.384Z,21.83
2018-11-07T02:10:55.585Z,21.87
2018-11-07T02:13:23.710Z,25.10
2018-11-07T02:15:51.893Z,21.37
2018-11-07T02:18:20.046Z,20.07
2018-11-07T02:20:48.249Z,22.80
2018-11-07T02:23:16.414Z,20.10
2018-11-07T02:25:44.692Z,20.90
2018-11-07T02:28:12.893Z,20.20
2018-11-07T02:30:41.049Z,22.80
2018-11-07T02:33:09.215Z,21.10
2018-11-07T02:35:37.425Z,21.27
2018-11-07T02:38:05.585Z,21.10
2018-11-07T02:40:33.824Z,22.27
2018-11-07T02:43:02.314Z,22.13
2018-11-07T02:45:30.509Z,21.90
2018-11-07T02:47:58.730Z,22.43
2018-11-07T02:50:27.579Z,22.40
2018-11-07T02:52:55.735Z,20.00
2018-11-07T02:55:23.901Z,23.13
2018-11-07T02:57:52.066Z,21.90
2018-11-07T03:00:21.227Z,24.75
2018-11-07T03:02:49.393Z,24.23
2018-11-07T03:05:17.570Z,24.70
2018-11-07T03:07:45.737Z,23.90
2018-11-07T03:10:14.164Z,22.25
2018-11-07T03:12:42.443Z,24.10
2018-11-07T03:15:10.925Z,22.77
2018-11-07T03:17:39.125Z,23.65
2018-11-07T03:20:08.902Z,23.00
2018-11-07T03:22:37.026Z,23.35
2018-11-07T03:25:05.297Z,21.77
2018-11-07T03:27:33.449Z,22.70
2018-11-07T03:30:01.569Z,22.03
2018-11-07T03:32:29.743Z,20.23
2018-11-07T03:34:58.215Z,20.90
2018-11-07T03:37:26.329Z,20.57
2018-11-07T03:39:54.572Z,20.97
2018-11-07T03:42:22.706Z,19.87
2018-11-07T03:44:50.881Z,19.75
2018-11-07T03:47:19.080Z,21.23
2018-11-07T03:49:47.262Z,20.67
2018-11-07T03:52:15.609Z,19.23
2018-11-07T03:54:43.777Z,20.17
2018-11-07T03:57:11.941Z,21.07
2018-11-07T03:59:40.097Z,20.47
2018-11-07T04:02:08.266Z,18.80
2018-11-07T04:04:36.462Z,19.80
2018-11-07T04:07:04.771Z,20.00
2018-11-07T04:09:34.447Z,19.37
2018-11-07T04:12:02.611Z,17.87
2018-11-07T04:14:30.770Z,17.03
2018-11-07T04:16:58.949Z,17.40
2018-11-07T04:19:27.133Z,18.50
2018-11-07T04:21:55.297Z,18.60
2018-11-07T04:24:23.447Z,17.93
2018-11-07T04:26:51.641Z,18.33
2018-11-07T04:29:19.789Z,19.30
2018-11-07T04:31:47.950Z,18.23
2018-11-07T04:34:16.118Z,15.13
2018-11-07T04:36:44.254Z,16.10
2018-11-07T04:39:12.589Z,16.00
2018-11-07T04:41:40.678Z,16.03
2018-11-07T04:44:08.842Z,16.40
2018-11-07T04:46:37.086Z,18.80
2018-11-07T04:49:05.232Z,18.27
2018-11-07T04:51:33.437Z,18.77
2018-11-07T04:54:01.590Z,18.57
2018-11-07T04:56:29.717Z,18.33
2018-11-07T04:58:57.869Z,17.92
2018-11-07T05:01:26.026Z,18.67
2018-11-07T05:03:54.206Z,19.27
2018-11-07T05:06:22.393Z,19.03
2018-11-07T05:08:50.757Z,20.73
2018-11-07T05:11:18.877Z,20.93
2018-11-07T05:13:47.106Z,20.40
2018-11-07T05:16:15.269Z,20.03
2018-11-07T05:18:43.421Z,19.93
2018-11-07T05:21:11.632Z,20.73
2018-11-07T05:23:39.813Z,20.10
2018-11-07T05:26:08.153Z,19.70
2018-11-07T05:28:36.261Z,19.13
2018-11-07T05:31:04.458Z,19.20
2018-11-07T05:33:32.646Z,19.97
2018-11-07T05:36:00.798Z,18.37
2018-11-07T05:38:29.070Z,18.10
2018-11-07T05:40:57.290Z,19.77
2018-11-07T05:43:25.420Z,16.80
2018-11-07T05:45:53.633Z,16.60
2018-11-07T05:48:21.785Z,17.27
2018-11-07T05:50:49.917Z,17.63
2018-11-07T05:53:18.115Z,18.53
2018-11-07T05:55:46.256Z,18.93
2018-11-07T05:58:14.441Z,17.60
2018-11-07T06:00:42.578Z,18.23
2018-11-07T06:03:10.773Z,17.37
2018-11-07T06:05:38.921Z,16.97
2018-11-07T06:08:07.082Z,17.50
2018-11-07T06:10:35.237Z,14.63
2018-11-07T06:13:03.406Z,15.83
2018-11-07T06:15:31.581Z,16.93
2018-11-07T06:18:00.098Z,15.50
2018-11-07T06:20:28.274Z,16.40
2018-11-07T06:22:56.481Z,17.27
2018-11-07T06:25:24.641Z,14.57
2018-11-07T06:27:52.795Z,16.37
2018-11-07T06:30:21.005Z,15.77
2018-11-07T06:32:49.165Z,15.60
2018-11-07T06:35:17.353Z,15.73
2018-11-07T06:37:45.537Z,17.60
2018-11-07T06:40:13.697Z,14.20
2018-11-07T06:42:41.861Z,15.45
2018-11-07T06:45:10.645Z,15.53
2018-11-07T06:47:38.805Z,15.00
2018-11-07T06:50:09.368Z,14.87
2018-11-07T06:52:37.743Z,14.00
2018-11-07T06:55:06.706Z,15.57
2018-11-07T06:57:34.877Z,14.13
2018-11-07T07:00:03.274Z,14.90
2018-11-07T07:02:31.433Z,14.38
2018-11-07T07:04:59.598Z,15.20
2018-11-07T07:07:27.801Z,17.00
2018-11-07T07:09:55.973Z,13.20
2018-11-07T07:12:24.145Z,16.60
2018-11-07T07:14:52.327Z,17.13
2018-11-07T07:17:22.238Z,17.70
2018-11-07T07:19:50.405Z,17.50
2018-11-07T07:22:18.619Z,15.50
2018-11-07T07:24:46.792Z,18.03
2018-11-07T07:27:14.937Z,18.23
2018-11-07T07:29:43.156Z,17.80
2018-11-07T07:32:11.237Z,16.43
2018-11-07T07:34:39.430Z,18.07
2018-11-07T07:37:07.573Z,18.37
2018-11-07T07:39:36.255Z,19.90
2018-11-07T07:42:04.430Z,19.33
2018-11-07T07:44:32.627Z,17.80
2018-11-07T07:47:00.829Z,19.57
2018-11-07T07:49:29.062Z,20.50
2018-11-07T07:51:57.234Z,20.23
2018-11-07T07:54:25.410Z,19.00
2018-11-07T07:56:53.618Z,18.70
2018-11-07T07:59:21.805Z,18.53
2018-11-07T08:01:49.969Z,19.40
2018-11-07T08:04:18.198Z,20.40
2018-11-07T08:06:46.427Z,21.07
2018-11-07T08:09:14.903Z,21.00
2018-11-07T08:11:43.033Z,20.87
2018-11-07T08:14:11.194Z,19.67
2018-11-07T08:16:39.349Z,19.97
2018-11-07T08:19:08.424Z,18.67
2018-11-07T08:21:36.569Z,19.50
2018-11-07T08:24:04.746Z,18.90
2018-11-07T08:26:33.026Z,18.33
2018-11-07T08:29:01.237Z,20.47
2018-11-07T08:31:29.354Z,18.70
2018-11-07T08:33:57.645Z,17.90
2018-11-07T08:36:25.817Z,20.20
2018-11-07T08:38:53.976Z,19.80
2018-11-07T08:41:22.145Z,17.97
2018-11-07T08:43:50.298Z,18.27
2018-11-07T08:46:19.073Z,19.33
2018-11-07T08:48:47.402Z,17.17
2018-11-07T08:51:15.563Z,17.23
2018-11-07T08:53:43.728Z,17.70
2018-11-07T08:56:12.353Z,18.13
2018-11-07T08:58:40.746Z,17.23
2018-11-07T09:01:08.897Z,17.90
2018-11-07T09:03:37.057Z,18.13
2018-11-07T09:06:05.247Z,17.50
2018-11-07T09:08:34.433Z,17.20
2018-11-07T09:11:02.679Z,17.07
2018-11-07T09:13:30.910Z,16.53
2018-11-07T09:15:59.061Z,16.03
2018-11-07T09:18:27.233Z,15.30
2018-11-07T09:20:55.401Z,16.27
2018-11-07T09:23:23.553Z,15.80
2018-11-07T09:25:51.693Z,15.90
2018-11-07T09:28:19.916Z,16.30
2018-11-07T09:30:48.089Z,14.87
2018-11-07T09:33:16.238Z,14.90
2018-11-07T09:35:44.397Z,13.80
2018-11-07T09:38:12.573Z,14.77
2018-11-07T09:40:40.702Z,14.40
2018-11-07T09:43:08.863Z,12.60
2018-11-07T09:45:37.009Z,12.20
2018-11-07T09:48:05.254Z,12.60
2018-11-07T09:50:33.407Z,12.30
2018-11-07T09:53:01.596Z,11.43
2018-11-07T09:55:29.745Z,12.53
2018-11-07T09:57:57.885Z,12.83
2018-11-07T10:00:26.085Z,14.17
2018-11-07T10:02:54.273Z,12.53
2018-11-07T10:05:22.486Z,13.20
2018-11-07T10:07:50.604Z,11.70
2018-11-07T10:10:21.721Z,12.23
2018-11-07T10:12:50.098Z,11.50
2018-11-07T10:15:18.673Z,12.60
2018-11-07T10:17:46.886Z,12.23
2018-11-07T10:20:16.622Z,12.23
2018-11-07T10:22:45.238Z,11.10
2018-11-07T10:25:13.937Z,11.20
2018-11-07T10:27:42.582Z,11.03
2018-11-07T10:30:12.628Z,12.00
2018-11-07T10:32:41.337Z,11.43
2018-11-07T10:35:09.846Z,12.37
2018-11-07T10:37:38.024Z,10.40
2018-11-07T10:40:08.597Z,10.73
2018-11-07T10:42:37.222Z,10.20
2018-11-07T10:45:05.730Z,10.63
2018-11-07T10:47:33.877Z,10.10
2018-11-07T10:50:02.209Z,8.90
2018-11-07T10:52:30.374Z,9.87
2018-11-07T10:54:58.558Z,10.10
2018-11-07T10:57:26.782Z,9.20
2018-11-07T10:59:54.978Z,9.50
2018-11-07T11:02:28.453Z,9.50
2018-11-07T11:04:56.868Z,9.07
2018-11-07T11:07:25.155Z,9.87
2018-11-07T11:09:53.293Z,9.43
2018-11-07T11:12:21.842Z,7.83
2018-11-07T11:14:50.021Z,8.40
2018-11-07T11:17:18.263Z,7.43
2018-11-07T11:19:46.423Z,8.20
2018-11-07T11:22:14.588Z,7.13
2018-11-07T11:24:42.773Z,7.87
2018-11-07T11:27:10.955Z,7.80
2018-11-07T11:29:39.283Z,6.50
2018-11-07T11:32:07.437Z,8.43
2018-11-07T11:34:35.751Z,6.40
2018-11-07T11:37:03.741Z,6.40
2018-11-07T11:39:31.914Z,6.47
2018-11-07T11:42:00.086Z,6.50
2018-11-07T11:44:28.285Z,6.10
2018-11-07T11:46:56.398Z,6.63
2018-11-07T11:49:24.516Z,7.33
2018-11-07T11:51:52.617Z,7.13
2018-11-07T11:54:20.769Z,7.40
2018-11-07T11:56:48.928Z,7.57
2018-11-07T11:59:17.223Z,7.70
2018-11-07T12:01:45.202Z,7.43
2018-11-07T12:04:13.394Z,7.40
2018-11-07T12:06:41.579Z,8.50
2018-11-07T12:09:10.386Z,7.63
2018-11-07T12:11:38.573Z,6.50
2018-11-07T12:14:06.686Z,6.70
2018-11-07T12:16:34.906Z,8.17
2018-11-07T12:19:03.087Z,6.37
2018-11-07T12:21:31.253Z,5.83
2018-11-07T12:23:59.431Z,5.93
2018-11-07T12:26:27.554Z,5.70
2018-11-07T12:28:56.638Z,6.40
2018-11-07T12:31:24.806Z,6.77
2018-11-07T12:33:52.993Z,6.33
2018-11-07T12:36:21.168Z,5.63
2018-11-07T12:38:50.141Z,6.47
2018-11-07T12:41:18.333Z,6.40
2018-11-07T12:43:46.518Z,6.53
2018-11-07T12:46:14.685Z,5.30
2018-11-07T12:48:42.990Z,5.13
2018-11-07T12:51:11.154Z,5.23
2018-11-07T12:53:39.353Z,5.40
2018-11-07T12:56:07.570Z,5.77
2018-11-07T12:58:35.727Z,6.10
2018-11-07T13:01:03.965Z,5.23
2018-11-07T13:03:32.167Z,5.77
2018-11-07T13:06:00.390Z,4.73
2018-11-07T13:08:28.586Z,4.03
2018-11-07T13:10:57.181Z,3.90
2018-11-07T13:13:25.318Z,4.27
2018-11-07T13:15:53.745Z,4.53
2018-11-07T13:18:21.889Z,4.00
2018-11-07T13:20:50.058Z,3.90
2018-11-07T13:23:18.238Z,4.07
2018-11-07T13:25:46.405Z,4.43
2018-11-07T13:28:14.759Z,4.80
2018-11-07T13:30:42.996Z,4.67
2018-11-07T13:33:11.170Z,4.77
2018-11-07T13:35:39.293Z,4.30
2018-11-07T13:38:07.898Z,4.17
2018-11-07T13:40:35.806Z,4.10
2018-11-07T13:43:04.029Z,3.77
2018-11-07T13:45:32.387Z,4.63
2018-11-07T13:48:00.482Z,4.13
2018-11-07T13:50:28.637Z,3.77
2018-11-07T13:52:56.814Z,4.17
2018-11-07T13:55:24.934Z,3.53
2018-11-07T13:57:53.133Z,3.80
2018-11-07T14:00:22.813Z,4.07
2018-11-07T14:02:51.574Z,3.10
2018-11-07T14:05:19.912Z,3.50
2018-11-07T14:07:47.967Z,3.80
2018-11-07T14:10:21.353Z,3.50
2018-11-07T14:12:51.207Z,3.50
2018-11-07T14:15:24.702Z,3.60
2018-11-07T14:17:53.284Z,3.73
2018-11-07T14:20:21.418Z,4.10
2018-11-07T14:22:49.624Z,3.47
2018-11-07T14:25:17.882Z,3.50
2018-11-07T14:27:46.359Z,3.67
2018-11-07T14:30:15.535Z,4.23
2018-11-07T14:32:54.319Z,3.70
2018-11-07T14:35:22.836Z,4.33
2018-11-07T14:37:51.298Z,4.07
2018-11-07T14:40:19.677Z,4.10
2018-11-07T14:42:48.709Z,4.10
2018-11-07T14:45:16.821Z,4.20
2018-11-07T14:47:45.088Z,4.60
2018-11-07T14:50:13.600Z,3.70
2018-11-07T14:52:41.831Z,4.37
2018-11-07T14:55:10.763Z,4.13
2018-11-07T14:57:38.977Z,4.07
2018-11-07T15:00:09.966Z,4.63
2018-11-07T15:02:38.378Z,4.00
2018-11-07T15:05:07.870Z,4.37
2018-11-07T15:07:36.105Z,4.60
2018-11-07T15:10:04.497Z,5.43
2018-11-07T15:12:32.685Z,4.60
2018-11-07T15:15:00.830Z,4.47
2018-11-07T15:17:28.960Z,5.07
2018-11-07T15:19:57.157Z,4.57
2018-11-07T15:22:25.317Z,4.80
2018-11-07T15:24:53.515Z,5.30
2018-11-07T15:27:21.687Z,5.07
2018-11-07T15:29:49.870Z,5.47
2018-11-07T15:32:18.106Z,5.30
2018-11-07T15:34:46.293Z,4.70
2018-11-07T15:37:14.482Z,5.23
2018-11-07T15:39:42.665Z,5.60
2018-11-07T15:42:10.815Z,5.60
2018-11-07T15:44:39.194Z,5.40
2018-11-07T15:47:07.350Z,5.27
2018-11-07T15:49:39.778Z,4.90
2018-11-07T15:52:07.980Z,4.90
2018-11-07T15:54:36.186Z,5.50
2018-11-07T15:57:04.293Z,5.73
2018-11-07T15:59:32.450Z,6.90
2018-11-07T16:02:00.629Z,7.73
2018-11-07T16:04:28.794Z,6.80
2018-11-07T16:06:56.946Z,7.63
2018-11-07T16:09:25.091Z,7.07
2018-11-07T16:11:53.307Z,10.20
2018-11-07T16:14:21.584Z,10.90
2018-11-07T16:16:49.837Z,12.40
2018-11-07T16:19:18.017Z,22.00
2018-11-07T16:21:46.259Z,15.40
2018-11-07T16:24:14.441Z,11.10
2018-11-07T16:26:42.859Z,28.57
2018-11-07T16:29:11.084Z,8.50
2018-11-07T16:31:39.240Z,7.20
2018-11-07T16:34:07.401Z,10.37
2018-11-07T16:36:35.607Z,9.57
2018-11-07T16:39:06.621Z,8.40
2018-11-07T16:41:34.889Z,8.43
2018-11-07T16:44:02.978Z,8.43
2018-11-07T16:46:37.590Z,7.00
2018-11-07T16:49:06.049Z,7.90
2018-11-07T16:51:35.278Z,6.07
2018-11-07T16:54:03.541Z,6.40
2018-11-07T16:56:31.742Z,7.37
2018-11-07T16:58:59.966Z,6.40
2018-11-07T17:01:28.093Z,6.07
2018-11-07T17:03:56.253Z,5.67
2018-11-07T17:06:24.454Z,7.00
2018-11-07T17:08:52.613Z,6.57
2018-11-07T17:11:20.789Z,7.00
2018-11-07T17:13:48.965Z,5.97
2018-11-07T17:16:17.241Z,7.33
2018-11-07T17:18:45.380Z,9.80
2018-11-07T17:21:13.538Z,6.00
2018-11-07T17:23:41.722Z,6.50
2018-11-07T17:26:09.887Z,6.93
2018-11-07T17:28:37.998Z,8.27
2018-11-07T17:31:06.190Z,6.30
2018-11-07T17:33:34.403Z,7.57
2018-11-07T17:36:02.652Z,7.73
2018-11-07T17:38:30.870Z,15.40
2018-11-07T17:40:59.053Z,51.70
2018-11-07T17:43:27.208Z,18.27
2018-11-07T17:45:55.362Z,12.70
2018-11-07T17:48:23.609Z,12.77
2018-11-07T17:50:51.736Z,8.80
2018-11-07T17:53:21.292Z,9.10
2018-11-07T17:55:49.441Z,9.10
2018-11-07T17:58:17.697Z,6.90
2018-11-07T18:00:45.873Z,7.00
2018-11-07T18:03:14.046Z,7.03
2018-11-07T18:05:42.289Z,8.00
2018-11-07T18:08:10.457Z,9.07
2018-11-07T18:10:39.055Z,11.20
2018-11-07T18:13:08.897Z,7.00
2018-11-07T18:15:37.222Z,10.37
2018-11-07T18:18:05.990Z,8.77
2018-11-07T18:20:34.298Z,7.17
2018-11-07T18:23:02.461Z,7.00
2018-11-07T18:25:30.579Z,10.43
2018-11-07T18:27:58.777Z,10.33
2018-11-07T18:30:26.937Z,7.30
2018-11-07T18:32:55.122Z,6.63
2018-11-07T18:35:23.462Z,4.50
2018-11-07T18:37:51.548Z,4.10
2018-11-07T18:40:20.605Z,4.30
2018-11-07T18:42:48.889Z,6.37
2018-11-07T18:45:17.244Z,7.27
2018-11-07T18:47:46.381Z,6.40
2018-11-07T18:50:16.077Z,8.87
2018-11-07T18:52:44.453Z,5.30
2018-11-07T18:55:13.816Z,4.17
2018-11-07T18:57:42.544Z,4.60
2018-11-07T19:00:13.473Z,14.83
2018-11-07T19:02:42.345Z,10.73
2018-11-07T19:05:11.165Z,4.80
2018-11-07T19:07:39.297Z,3.53
2018-11-07T19:10:09.994Z,6.23
2018-11-07T19:12:38.340Z,11.10
2018-11-07T19:15:08.145Z,6.23
2018-11-07T19:17:36.437Z,4.90
2018-11-07T19:20:04.839Z,5.53
2018-11-07T19:22:32.943Z,5.40
2018-11-07T19:25:01.110Z,5.17
2018-11-07T19:27:29.278Z,4.77
2018-11-07T19:29:57.430Z,4.33
2018-11-07T19:32:25.593Z,3.80
2018-11-07T19:34:53.733Z,3.17
2018-11-07T19:37:21.847Z,4.40
2018-11-07T19:39:49.994Z,5.00
2018-11-07T19:42:18.179Z,5.10
2018-11-07T19:44:46.325Z,4.20
2018-11-07T19:47:14.514Z,3.63
2018-11-07T19:49:42.677Z,3.60
2018-11-07T19:52:10.830Z,4.40
2018-11-07T19:54:39.008Z,5.23
2018-11-07T19:57:07.145Z,5.50
2018-11-07T19:59:35.400Z,6.23
2018-11-07T20:02:03.571Z,6.80
2018-11-07T20:04:31.757Z,7.23
2018-11-07T20:07:00.007Z,7.90
2018-11-07T20:09:28.244Z,7.23
2018-11-07T20:11:56.509Z,7.30
2018-11-07T20:14:24.681Z,7.10
2018-11-07T20:16:52.885Z,7.50
2018-11-07T20:19:21.040Z,8.30
2018-11-07T20:21:49.657Z,6.43
2018-11-07T20:24:17.817Z,6.90
2018-11-07T20:26:45.990Z,7.83
2018-11-07T20:29:14.141Z,7.17
2018-11-07T20:31:42.312Z,6.50
2018-11-07T20:34:10.485Z,6.77
2018-11-07T20:36:38.650Z,6.40
2018-11-07T20:39:08.948Z,5.60
2018-11-07T20:41:37.113Z,6.30
2018-11-07T20:44:05.696Z,5.80
2018-11-07T20:46:33.902Z,7.03
2018-11-07T20:49:02.188Z,6.63
2018-11-07T20:51:30.250Z,6.80
2018-11-07T20:53:58.490Z,6.03
2018-11-07T20:56:26.677Z,6.40
2018-11-07T20:58:54.817Z,7.47
2018-11-07T21:01:23.214Z,6.93
2018-11-07T21:03:51.353Z,6.67
2018-11-07T21:06:19.677Z,7.57
2018-11-07T21:08:47.849Z,7.13
2018-11-07T21:11:16.001Z,8.40
2018-11-07T21:13:44.146Z,6.77
2018-11-07T21:16:12.325Z,5.97
2018-11-07T21:18:40.471Z,5.70
2018-11-07T21:21:08.605Z,6.40
2018-11-07T21:23:36.873Z,6.30
2018-11-07T21:26:05.053Z,6.70
2018-11-07T21:28:33.216Z,6.77
2018-11-07T21:31:01.408Z,6.17
2018-11-07T21:33:29.700Z,7.00
2018-11-07T21:35:57.793Z,7.33
2018-11-07T21:38:25.977Z,6.00
2018-11-07T21:40:54.146Z,6.57
2018-11-07T21:43:22.382Z,7.20
2018-11-07T21:45:50.565Z,7.20
2018-11-07T21:48:18.745Z,7.57
2018-11-07T21:50:46.990Z,8.67
2018-11-07T21:53:15.174Z,6.60
2018-11-07T21:55:43.364Z,6.80
2018-11-07T21:58:11.622Z,7.27
2018-11-07T22:00:39.785Z,5.73
2018-11-07T22:03:09.749Z,6.53
2018-11-07T22:05:37.901Z,6.60
2018-11-07T22:08:06.125Z,7.70
2018-11-07T22:10:34.260Z,7.70
2018-11-07T22:13:02.423Z,8.50
2018-11-07T22:15:30.564Z,8.47
2018-11-07T22:17:58.744Z,8.70
2018-11-07T22:20:26.907Z,8.70
2018-11-07T22:22:55.049Z,9.33
2018-11-07T22:25:23.246Z,10.40
2018-11-07T22:27:51.402Z,9.00
2018-11-07T22:30:19.565Z,9.73
2018-11-07T22:32:48.562Z,9.77
2018-11-07T22:35:17.669Z,10.60
2018-11-07T22:37:46.325Z,10.43
2018-11-07T22:40:15.697Z,11.20
2018-11-07T22:42:44.019Z,10.80
2018-11-07T22:45:12.801Z,10.83
2018-11-07T22:47:41.021Z,10.70
2018-11-07T22:50:10.792Z,10.73
2018-11-07T22:52:39.273Z,11.50
2018-11-07T22:55:07.949Z,11.80
2018-11-07T22:57:37.159Z,11.00
2018-11-07T23:00:14.259Z,11.57
2018-11-07T23:02:42.409Z,12.00
2018-11-07T23:05:10.597Z,11.57
2018-11-07T23:07:38.754Z,12.03
2018-11-07T23:10:06.938Z,10.23
2018-11-07T23:12:35.102Z,11.20
2018-11-07T23:15:03.229Z,10.07
2018-11-07T23:17:31.361Z,10.90
2018-11-07T23:19:59.553Z,9.87
2018-11-07T23:22:27.729Z,11.10
2018-11-07T23:24:55.905Z,10.90
2018-11-07T23:27:24.081Z,10.60
2018-11-07T23:29:52.316Z,10.90
2018-11-07T23:32:20.422Z,9.60
2018-11-07T23:34:48.570Z,10.10
2018-11-07T23:37:16.737Z,11.20
2018-11-07T23:39:44.934Z,9.97
2018-11-07T23:42:13.251Z,10.17
2018-11-07T23:44:41.389Z,10.37
2018-11-07T23:47:09.785Z,9.83
2018-11-07T23:49:37.941Z,10.47
2018-11-07T23:52:06.424Z,10.33
2018-11-07T23:54:34.541Z,9.77
2018-11-07T23:57:02.734Z,10.53
2018-11-07T23:59:30.851Z,10.43
